Badsworth, United Kingdom
Current Conditions -  °F | °C
As of 5:50 AM on Sunday 23 Nov 2014 (Local Time) from EGCN Reporting Station
Light Rain Light Rain  
Wind Chill: 44°   Ceiling: 4700
Heat Index: 48°   Visibility: 6mi
Dew Point: 46°   Wind: 9mph
Humidity: 93%   Direction: 290°WNW
Pressure: 30.03"   Gusts: NA
Location:  53.63°N, 1.3°W
Report Text: EGCN 230550Z 29008KT 9999 -RA SCT039 BKN047 09/08 Q1017
Loading
Personal Weather Stations






























Interactive Weather Map New forecast layout! Learn more

10-Day Weather Forecast

Advertisements
Track Severe Weather on mobile